Time;durP1;ratioP1;P1;durP2;ratioP2;P2;SDS_P1;SDS_P2;PMS_P1;PMS_P2;Temp;Humidity;BMP_temperature;BMP_pressure;BME280_temperature;BME280_humidity;BME280_pressure;Samples;Min_cycle;Max_cycle;Signal;HPM_P1;HPM_P2
2021/05/20 03:32:27;;;;;;;2.17;1.90;;;;;;;14.88;51.49;99200.44;7405957;23;20232;-87
2021/05/20 03:35:48;;;;;;;2.03;1.93;;;;;;;14.96;51.66;99200.13;6899487;28;20212;-86
2021/05/20 03:39:09;;;;;;;2.10;2.00;;;;;;;14.33;52.52;99149.78;6901754;28;20217;-86
2021/05/20 03:42:30;;;;;;;2.87;2.00;;;;;;;14.32;52.96;99202.34;6927398;28;20235;-86
2021/05/20 03:45:51;;;;;;;2.17;2.00;;;;;;;14.39;52.62;99186.88;6939992;22;20232;-82
2021/05/20 03:49:13;;;;;;;2.60;1.90;;;;;;;14.54;52.92;99215.34;6913009;28;20697;-82
2021/05/20 03:52:34;;;;;;;2.27;1.80;;;;;;;15.11;51.50;99212.31;6914614;28;20250;-82
2021/05/20 03:55:55;;;;;;;2.10;2.00;;;;;;;14.88;51.12;99211.28;6896969;28;20262;-82
2021/05/20 03:59:17;;;;;;;2.63;2.17;;;;;;;14.89;52.02;99221.09;6912543;28;20240;-83
2021/05/20 04:02:38;;;;;;;2.50;2.30;;;;;;;15.04;51.57;99218.88;6929190;28;20208;-82
2021/05/20 04:06:01;;;;;;;1.87;1.73;;;;;;;14.75;51.78;99222.28;6921098;28;20224;-83
2021/05/20 04:09:22;;;;;;;1.97;1.87;;;;;;;15.07;50.97;99213.00;6920661;28;20698;-83
2021/05/20 04:12:43;;;;;;;2.23;2.13;;;;;;;15.02;51.36;99220.97;6920197;28;20217;-83
2021/05/20 04:16:06;;;;;;;2.33;2.00;;;;;;;15.30;50.51;99219.44;6921060;28;20229;-83
2021/05/20 04:19:27;;;;;;;2.17;2.00;;;;;;;15.27;50.46;99205.47;6924516;28;20200;-83
2021/05/20 04:22:49;;;;;;;1.80;1.70;;;;;;;15.42;49.81;99219.56;6925781;28;20216;-83
2021/05/20 04:26:10;;;;;;;1.83;1.73;;;;;;;15.15;50.54;99224.38;6925982;28;20267;-83
2021/05/20 04:29:31;;;;;;;1.47;1.37;;;;;;;15.57;50.09;99223.56;6925875;28;20249;-84
2021/05/20 04:32:57;;;;;;;1.73;1.63;;;;;;;15.64;50.50;99226.19;6918530;28;20214;-83
2021/05/20 04:36:18;;;;;;;2.30;1.57;;;;;;;15.37;50.51;99225.66;6899204;28;20196;-83
2021/05/20 04:39:42;;;;;;;1.57;1.47;;;;;;;15.52;50.45;99222.59;6899750;28;20783;-83
2021/05/20 04:43:03;;;;;;;1.70;1.60;;;;;;;15.11;51.38;99222.34;6902855;28;20204;-83
2021/05/20 04:46:24;;;;;;;5.13;1.60;;;;;;;15.30;51.77;99237.63;6898113;28;20199;-82
2021/05/20 04:49:45;;;;;;;2.20;1.50;;;;;;;15.56;50.07;99234.63;6911005;28;20225;-83
2021/05/20 04:53:07;;;;;;;2.63;1.70;;;;;;;15.49;50.31;99229.28;6927473;28;20218;-83
2021/05/20 04:56:29;;;;;;;1.90;1.53;;;;;;;15.80;49.40;99226.41;6926124;28;20622;-83
2021/05/20 04:59:50;;;;;;;1.63;1.53;;;;;;;15.87;49.68;99243.47;6924867;28;20233;-83
2021/05/20 05:03:11;;;;;;;1.60;1.50;;;;;;;15.77;49.90;99245.06;6924316;28;20229;-83
2021/05/20 05:06:32;;;;;;;2.60;1.50;;;;;;;15.99;49.53;99247.06;6924002;28;20211;-83
2021/05/20 05:09:53;;;;;;;2.97;1.60;;;;;;;15.87;49.30;99258.97;6924811;28;20685;-83
2021/05/20 05:13:18;;;;;;;1.60;1.50;;;;;;;15.96;49.22;99253.00;6924292;28;20281;-83
2021/05/20 05:16:39;;;;;;;1.67;1.57;;;;;;;16.38;48.19;99251.16;6925399;28;20652;-85
2021/05/20 05:20:00;;;;;;;2.97;1.67;;;;;;;16.53;47.61;99255.16;6924151;28;20220;-82
2021/05/20 05:23:21;;;;;;;1.70;1.60;;;;;;;15.97;48.54;99261.97;6923918;28;20229;-83
2021/05/20 05:26:43;;;;;;;1.70;1.60;;;;;;;16.01;49.19;99279.50;6924496;28;20204;-84
2021/05/20 05:30:06;;;;;;;2.10;1.70;;;;;;;16.48;48.13;99267.78;6923913;28;20693;-83
2021/05/20 05:33:28;;;;;;;1.33;1.33;;;;;;;16.36;48.55;99272.34;6923705;28;20257;-83
2021/05/20 05:36:50;;;;;;;1.50;1.40;;;;;;;16.31;49.15;99272.19;6923861;28;20184;-83
2021/05/20 05:40:11;;;;;;;1.63;1.53;;;;;;;16.34;49.03;99269.03;6923613;28;20217;-84
2021/05/20 05:43:32;;;;;;;3.50;1.50;;;;;;;16.09;49.84;99290.91;6923552;28;20234;-83
2021/05/20 05:46:54;;;;;;;1.70;1.60;;;;;;;16.13;49.41;99281.22;6924571;28;20203;-83
2021/05/20 05:50:15;;;;;;;1.50;1.40;;;;;;;16.02;49.31;99297.47;6924105;28;20664;-83
2021/05/20 05:53:37;;;;;;;2.20;1.67;;;;;;;15.47;51.22;99301.22;6924254;28;20282;-83
2021/05/20 05:56:58;;;;;;;3.20;1.70;;;;;;;16.34;49.33;99309.84;6923794;28;20216;-83
2021/05/20 06:00:20;;;;;;;2.00;1.77;;;;;;;15.79;50.47;99313.63;6924032;28;20215;-82
2021/05/20 06:03:42;;;;;;;1.90;1.70;;;;;;;16.46;49.08;99306.13;6924973;28;20227;-82
2021/05/20 06:07:03;;;;;;;2.30;1.60;;;;;;;16.43;48.56;99290.28;6924749;28;20233;-82
2021/05/20 06:10:24;;;;;;;2.30;1.60;;;;;;;16.02;50.08;99313.78;6924626;28;20207;-82
2021/05/20 06:13:46;;;;;;;1.60;1.50;;;;;;;15.89;50.74;99317.50;6925604;28;20613;-82
2021/05/20 06:17:07;;;;;;;1.97;1.87;;;;;;;16.36;49.32;99308.56;6926061;28;20251;-83
2021/05/20 06:20:29;;;;;;;1.80;1.70;;;;;;;16.11;50.26;99318.69;6926480;28;20203;-82
2021/05/20 06:23:51;;;;;;;4.90;1.70;;;;;;;15.64;51.12;99308.56;6925422;28;20231;-82
2021/05/20 06:27:13;;;;;;;3.37;1.70;;;;;;;15.90;50.71;99324.59;6925137;28;20230;-83
2021/05/20 06:30:37;;;;;;;1.90;1.80;;;;;;;15.90;50.92;99326.47;6923116;28;20213;-82
2021/05/20 06:33:58;;;;;;;7.67;1.93;;;;;;;15.71;51.14;99293.03;6923858;28;20228;-83
2021/05/20 06:37:20;;;;;;;4.17;1.83;;;;;;;15.43;51.45;99325.31;6923127;28;20211;-82
2021/05/20 06:40:41;;;;;;;2.40;1.70;;;;;;;15.81;50.90;99336.00;6923462;28;20204;-82
2021/05/20 06:44:02;;;;;;;2.03;1.83;;;;;;;15.93;50.85;99323.31;6924151;28;20303;-83
2021/05/20 06:47:23;;;;;;;2.80;1.80;;;;;;;16.25;49.51;99311.19;6923288;28;20828;-82
2021/05/20 06:50:45;;;;;;;3.63;1.87;;;;;;;16.28;49.87;99335.25;6922650;28;20211;-83
2021/05/20 06:54:07;;;;;;;4.17;2.63;;;;;;;16.81;48.49;99328.88;6922911;28;20266;-83
2021/05/20 06:57:30;;;;;;;2.40;2.20;;;;;;;16.99;48.55;99327.97;6922999;28;20209;-83
2021/05/20 07:00:51;;;;;;;1.97;1.70;;;;;;;16.50;48.44;99331.00;6923012;28;20203;-83
2021/05/20 07:04:13;;;;;;;2.07;1.90;;;;;;;17.62;47.46;99335.31;6923351;28;20284;-84
2021/05/20 07:07:38;;;;;;;1.80;1.60;;;;;;;17.33;46.64;99336.22;6923988;28;20269;-83
2021/05/20 07:11:00;;;;;;;3.33;1.70;;;;;;;16.94;47.40;99298.72;6923739;28;20195;-84
2021/05/20 07:14:21;;;;;;;2.00;1.80;;;;;;;16.87;48.01;99330.66;6928371;28;20263;-84
2021/05/20 07:17:42;;;;;;;2.27;1.67;;;;;;;17.28;47.48;99330.63;6911550;28;20215;-84
2021/05/20 07:21:04;;;;;;;1.80;1.53;;;;;;;16.15;49.68;99338.13;6899381;28;20561;-84
2021/05/20 07:24:25;;;;;;;3.30;1.93;;;;;;;15.99;50.73;99327.84;6896091;28;20222;-83
2021/05/20 07:27:47;;;;;;;2.80;1.70;;;;;;;17.27;47.71;99334.41;6896907;28;20229;-84
2021/05/20 07:31:08;;;;;;;2.67;1.90;;;;;;;17.52;47.39;99331.53;6895529;28;20212;-84
2021/05/20 07:34:32;;;;;;;2.83;1.90;;;;;;;17.65;46.39;99332.13;6894134;28;20319;-84
2021/05/20 07:37:53;;;;;;;1.80;1.70;;;;;;;18.20;45.05;99335.25;6895529;28;20208;-83
2021/05/20 07:41:15;;;;;;;2.27;2.00;;;;;;;18.46;44.05;99315.63;6894968;28;20216;-84
2021/05/20 07:44:38;;;;;;;1.80;1.70;;;;;;;18.80;43.71;99322.84;6893906;28;20243;-85
2021/05/20 07:47:59;;;;;;;1.80;1.70;;;;;;;18.07;44.48;99335.50;6895057;28;20228;-84
2021/05/20 07:51:21;;;;;;;2.03;1.93;;;;;;;17.73;44.91;99320.00;6895131;28;20251;-85
2021/05/20 07:54:42;;;;;;;2.23;1.50;;;;;;;17.28;47.47;99335.28;6899601;28;20265;-83
2021/05/20 07:58:04;;;;;;;3.60;1.70;;;;;;;17.27;46.42;99331.69;6900538;28;20205;-84
2021/05/20 08:01:28;;;;;;;1.80;1.70;;;;;;;17.30;47.61;99322.22;6900382;28;20204;-84
2021/05/20 08:04:52;;;;;;;2.00;1.70;;;;;;;17.40;47.16;99334.22;6899584;28;20224;-85
2021/05/20 08:08:19;;;;;;;2.23;1.50;;;;;;;17.89;45.58;99331.03;6899753;28;20569;-84
2021/05/20 08:11:40;;;;;;;1.90;1.80;;;;;;;18.18;45.45;99321.00;6912545;28;20207;-84
2021/05/20 08:15:02;;;;;;;1.97;1.70;;;;;;;19.65;41.93;99322.41;6926132;28;20228;-85
2021/05/20 08:18:24;;;;;;;1.60;1.50;;;;;;;19.93;40.06;99327.72;6929941;28;20235;-85
2021/05/20 08:21:45;;;;;;;1.77;1.47;;;;;;;19.82;41.05;99316.91;6925653;28;20203;-84
2021/05/20 08:25:08;;;;;;;1.60;1.50;;;;;;;19.91;40.38;99312.63;6925791;28;20228;-84
2021/05/20 08:28:29;;;;;;;2.63;1.57;;;;;;;18.66;41.97;99288.69;6925795;28;20240;-84
2021/05/20 08:31:50;;;;;;;1.70;1.60;;;;;;;18.92;42.01;99312.69;6924689;28;20207;-84
2021/05/20 08:35:13;;;;;;;1.73;1.47;;;;;;;18.55;42.37;99306.78;6925361;28;20224;-85
2021/05/20 08:38:34;;;;;;;1.87;1.67;;;;;;;18.09;43.36;99319.72;6925477;28;20562;-84
2021/05/20 08:41:56;;;;;;;3.60;1.90;;;;;;;18.73;42.90;99308.47;6925069;28;20196;-84
2021/05/20 08:45:19;;;;;;;3.47;1.80;;;;;;;19.13;42.52;99320.16;6925213;28;20234;-84
2021/05/20 08:48:40;;;;;;;1.70;1.60;;;;;;;19.49;41.36;99311.47;6925929;28;20227;-84
2021/05/20 08:52:02;;;;;;;1.70;1.60;;;;;;;17.97;44.03;99324.34;6925040;28;20212;-85
2021/05/20 08:55:24;;;;;;;2.30;1.60;;;;;;;18.85;42.54;99309.25;6925419;28;20223;-84
2021/05/20 08:58:46;;;;;;;1.73;1.63;;;;;;;19.19;41.58;99308.22;6920088;28;20204;-84
2021/05/20 09:02:07;;;;;;;1.83;1.73;;;;;;;19.07;41.13;99308.31;6923419;28;20199;-84
2021/05/20 09:05:28;;;;;;;3.27;2.27;;;;;;;19.02;41.88;99313.69;6924110;28;20216;-84
2021/05/20 09:08:50;;;;;;;2.00;1.90;;;;;;;19.50;41.00;99308.50;6924967;28;20250;-85
2021/05/20 09:12:11;;;;;;;1.60;1.50;;;;;;;19.21;40.66;99323.31;6924249;28;20665;-85
2021/05/20 09:15:34;;;;;;;3.10;1.63;;;;;;;19.06;40.46;99322.22;6924617;28;20235;-83
2021/05/20 09:18:59;;;;;;;3.07;1.80;;;;;;;19.41;41.08;99322.84;6924263;28;20240;-85
2021/05/20 09:22:21;;;;;;;1.60;1.50;;;;;;;20.13;39.45;99308.91;6924074;28;20607;-84
2021/05/20 09:25:44;;;;;;;1.70;1.60;;;;;;;20.11;41.27;99327.47;6924519;28;20262;-85
2021/05/20 09:29:09;;;;;;;1.30;1.20;;;;;;;20.67;38.51;99302.41;6924357;28;20230;-84
2021/05/20 09:32:34;;;;;;;3.67;1.20;;;;;;;19.68;40.25;99319.16;6923731;28;20204;-86
2021/05/20 09:35:55;;;;;;;2.37;1.57;;;;;;;19.80;39.76;99327.28;6924159;28;20229;-84
2021/05/20 09:39:18;;;;;;;1.60;1.50;;;;;;;19.87;39.44;99322.47;6924013;28;20204;-85
2021/05/20 09:42:40;;;;;;;2.40;1.67;;;;;;;21.14;37.93;99317.19;6924310;28;20200;-84
2021/05/20 09:46:03;;;;;;;2.07;1.37;;;;;;;20.74;38.07;99318.66;6952801;23;20701;-74
2021/05/20 09:49:25;;;;;;;1.67;1.57;;;;;;;20.72;37.19;99305.22;6911931;28;20237;-75
2021/05/20 09:52:47;;;;;;;2.53;1.30;;;;;;;21.59;36.70;99307.38;6883779;28;20224;-76
2021/05/20 09:56:09;;;;;;;1.17;1.17;;;;;;;22.15;34.67;99294.84;6922113;28;20222;-75
2021/05/20 09:59:32;;;;;;;1.77;1.30;;;;;;;21.70;35.49;99289.94;6921951;28;20265;-75
2021/05/20 10:03:00;;;;;;;1.77;1.10;;;;;;;20.32;37.82;99282.00;6920412;28;20210;-75
2021/05/20 10:06:34;;;;;;;2.10;1.20;;;;;;;20.46;37.25;99296.97;6920960;28;20204;-75
2021/05/20 10:09:56;;;;;;;1.57;1.40;;;;;;;19.34;38.74;99284.72;6921126;28;20257;-75
2021/05/20 10:13:18;;;;;;;1.57;1.47;;;;;;;19.83;39.07;99305.72;6920397;28;20204;-74
2021/05/20 10:16:40;;;;;;;1.50;1.40;;;;;;;19.10;39.86;99316.00;6919681;28;20621;-74
2021/05/20 10:20:04;;;;;;;1.30;1.20;;;;;;;18.99;40.60;99311.41;6920505;28;20209;-74
2021/05/20 10:23:26;;;;;;;1.50;1.40;;;;;;;19.71;39.42;99302.25;6920088;28;20611;-75
2021/05/20 10:26:47;;;;;;;1.60;1.33;;;;;;;19.87;38.14;99311.50;6920540;28;20226;-74
2021/05/20 10:30:11;;;;;;;1.40;1.30;;;;;;;20.03;38.43;99275.03;6905689;28;20587;-74
2021/05/20 10:33:34;;;;;;;3.33;1.40;;;;;;;20.81;37.70;99295.44;6866213;28;20244;-75
2021/05/20 10:36:57;;;;;;;3.17;1.13;;;;;;;21.59;35.55;99284.63;6866942;28;20211;-75
2021/05/20 10:40:29;;;;;;;1.97;1.20;;;;;;;21.19;36.58;99279.63;6867243;28;20275;-75
2021/05/20 10:43:51;;;;;;;1.50;1.37;;;;;;;21.00;35.74;99282.22;6866477;28;20307;-75
2021/05/20 10:47:13;;;;;;;1.60;1.50;;;;;;;20.80;36.45;99282.00;6865988;28;20208;-75
2021/05/20 10:50:53;;;;;;;1.60;1.50;;;;;;;21.24;36.15;99276.94;6865586;28;20237;-74
2021/05/20 10:54:15;;;;;;;1.67;1.57;;;;;;;22.06;34.58;99274.50;6848206;28;20450;-76
2021/05/20 10:57:56;;;;;;;1.60;1.50;;;;;;;21.57;35.41;99273.91;6865373;28;20233;-76
2021/05/20 11:01:38;;;;;;;1.40;1.30;;;;;;;21.90;35.11;99270.00;6848325;28;20215;-76
2021/05/20 11:04:59;;;;;;;1.83;1.73;;;;;;;21.57;34.31;99270.31;6865587;28;20259;-75
2021/05/20 11:08:57;;;;;;;1.10;1.10;;;;;;;21.96;34.32;99263.47;6865644;28;20261;-75
2021/05/20 11:12:20;;;;;;;2.47;1.50;;;;;;;20.70;34.01;99255.28;6864473;28;20216;-75
2021/05/20 11:15:41;;;;;;;2.17;1.37;;;;;;;22.46;32.76;99252.69;6883037;28;20231;-75
2021/05/20 11:19:27;;;;;;;1.10;1.10;;;;;;;22.71;32.57;99236.25;6874700;28;20215;-75
2021/05/20 11:23:36;;;;;;;1.63;1.10;;;;;;;22.29;33.20;99238.31;6891720;28;20208;-75
2021/05/20 11:26:58;;;;;;;1.30;1.20;;;;;;;21.65;32.99;99237.72;6894010;28;20215;-75
2021/05/20 11:30:20;;;;;;;1.40;1.30;;;;;;;21.27;36.24;99230.91;6897609;28;20581;-75
2021/05/20 11:33:52;;;;;;;1.20;1.20;;;;;;;20.90;33.17;99219.91;6896793;28;20208;-75
2021/05/20 11:37:21;;;;;;;1.60;1.10;;;;;;;21.07;34.19;99225.25;6896808;28;20244;-75
2021/05/20 11:40:42;;;;;;;1.13;1.03;;;;;;;21.38;33.35;99209.59;6888246;28;20294;-75
2021/05/20 11:44:06;;;;;;;1.27;1.17;;;;;;;21.30;32.65;99210.06;6869838;28;20686;-75
2021/05/20 11:47:28;;;;;;;1.00;1.00;;;;;;;21.30;33.11;99210.06;6870836;28;20214;-76
2021/05/20 11:50:50;;;;;;;1.20;1.10;;;;;;;21.44;33.75;99222.25;6868957;28;20237;-75
2021/05/20 11:54:15;;;;;;;1.33;1.30;;;;;;;21.72;33.10;99213.63;6868931;28;20209;-75
2021/05/20 11:57:36;;;;;;;0.83;0.80;;;;;;;21.59;34.51;99225.06;6870183;28;20205;-77
2021/05/20 12:01:01;;;;;;;1.17;1.13;;;;;;;21.54;33.91;99219.53;6870013;28;20268;-77
2021/05/20 12:04:25;;;;;;;1.60;1.10;;;;;;;21.33;33.62;99222.41;6872058;28;20216;-77
2021/05/20 12:07:47;;;;;;;2.87;1.27;;;;;;;21.30;33.13;99221.03;6870989;28;20241;-77
2021/05/20 12:11:08;;;;;;;2.27;1.10;;;;;;;21.44;33.92;99224.97;6871064;28;20255;-77
2021/05/20 12:14:30;;;;;;;1.67;1.27;;;;;;;21.86;32.89;99213.97;6869294;28;20607;-77
2021/05/20 12:17:54;;;;;;;3.93;3.53;;;;;;;22.08;32.58;99206.38;6869067;28;20202;-77
2021/05/20 12:21:16;;;;;;;2.03;1.40;;;;;;;21.66;33.90;99211.13;6869177;28;20206;-77
2021/05/20 12:24:39;;;;;;;1.70;1.10;;;;;;;21.34;34.04;99210.34;6869476;28;20218;-77
2021/05/20 12:28:01;;;;;;;1.57;1.47;;;;;;;21.17;34.65;99201.44;6869608;28;20233;-77
2021/05/20 12:31:22;;;;;;;2.53;1.30;;;;;;;21.75;34.01;99212.28;6868620;28;20210;-77
2021/05/20 12:34:43;;;;;;;1.57;1.17;;;;;;;21.80;33.20;99187.59;6877441;28;20277;-77
2021/05/20 12:38:07;;;;;;;3.13;1.30;;;;;;;21.37;33.61;99207.09;6845715;28;20208;-77
2021/05/20 12:41:35;;;;;;;1.50;0.97;;;;;;;21.49;34.54;99186.56;6897097;28;20212;-77
2021/05/20 12:45:03;;;;;;;3.60;2.83;;;;;;;22.46;32.84;99198.56;6896904;28;20271;-77
2021/05/20 12:48:30;;;;;;;1.77;1.23;;;;;;;21.40;32.40;99181.84;6896003;28;20582;-77
2021/05/20 12:51:58;;;;;;;1.93;1.40;;;;;;;21.44;33.68;99191.22;6895457;28;20750;-77
2021/05/20 12:55:30;;;;;;;2.40;0.87;;;;;;;22.68;30.93;99185.41;6895475;28;20570;-77
2021/05/20 12:58:53;;;;;;;1.13;1.03;;;;;;;22.69;32.03;99184.28;6895628;28;20213;-77
2021/05/20 13:02:17;;;;;;;1.70;1.10;;;;;;;22.27;32.83;99186.41;6895467;28;20209;-77
2021/05/20 13:05:45;;;;;;;2.03;1.17;;;;;;;22.70;33.26;99182.34;6895239;28;20214;-77
2021/05/20 13:09:07;;;;;;;1.63;1.10;;;;;;;22.19;33.18;99180.59;6895279;28;20238;-77
2021/05/20 13:12:41;;;;;;;1.53;1.07;;;;;;;21.94;34.71;99155.78;6894910;28;20266;-78
2021/05/20 13:16:13;;;;;;;1.30;1.20;;;;;;;22.04;35.19;99123.72;6875281;28;20320;-77
2021/05/20 13:20:06;;;;;;;2.50;1.60;;;;;;;21.99;35.49;99162.13;6869811;28;20198;-77
2021/05/20 13:23:28;;;;;;;1.30;1.20;;;;;;;22.15;35.27;99168.50;6869501;28;20217;-77
2021/05/20 13:26:50;;;;;;;1.47;1.33;;;;;;;21.86;34.55;99164.56;6869475;28;20222;-78
2021/05/20 13:30:15;;;;;;;1.50;1.40;;;;;;;21.68;34.60;99162.28;6869692;28;20233;-77
2021/05/20 13:33:41;;;;;;;1.90;1.47;;;;;;;21.63;35.75;99163.06;6867677;28;20248;-78
2021/05/20 13:37:02;;;;;;;1.13;1.13;;;;;;;22.17;34.45;99171.78;6867963;28;20209;-77
2021/05/20 13:40:24;;;;;;;1.10;1.10;;;;;;;21.76;33.67;99176.31;6865117;28;20226;-77
2021/05/20 13:43:46;;;;;;;1.17;1.17;;;;;;;21.33;34.29;99173.03;6868076;28;20227;-77
2021/05/20 13:47:08;;;;;;;1.47;1.10;;;;;;;20.70;35.97;99169.53;6869019;28;20226;-77
2021/05/20 13:50:29;;;;;;;0.80;0.80;;;;;;;21.58;35.41;99162.19;6867584;28;20244;-77
2021/05/20 13:53:55;;;;;;;1.60;1.40;;;;;;;21.93;34.50;99165.13;6868277;28;20209;-77
2021/05/20 13:57:17;;;;;;;1.70;1.07;;;;;;;22.29;33.35;99161.38;6850626;28;20209;-75
2021/05/20 14:00:39;;;;;;;1.30;1.20;;;;;;;22.51;32.28;99132.59;6866290;28;20229;-75
2021/05/20 14:04:09;;;;;;;3.10;2.80;;;;;;;22.07;32.85;99142.38;6867170;28;20216;-76
2021/05/20 14:07:31;;;;;;;1.73;1.63;;;;;;;22.09;32.39;99133.88;6867414;28;20206;-74
2021/05/20 14:10:52;;;;;;;1.50;1.07;;;;;;;22.94;30.04;99112.78;6867113;28;20220;-76
2021/05/20 14:14:13;;;;;;;1.00;1.00;;;;;;;22.53;30.52;99130.41;6867367;28;20213;-75
2021/05/20 14:17:36;;;;;;;1.10;1.10;;;;;;;21.69;31.84;99111.78;6867006;28;20216;-75
2021/05/20 14:20:58;;;;;;;1.43;1.10;;;;;;;21.59;32.48;99122.72;6849218;28;20300;-75
2021/05/20 14:24:19;;;;;;;0.97;0.97;;;;;;;21.76;32.41;99118.69;6865961;28;20275;-76
2021/05/20 14:27:40;;;;;;;1.10;1.00;;;;;;;21.95;32.93;99111.59;6866798;28;20224;-75
2021/05/20 14:31:02;;;;;;;1.63;1.17;;;;;;;22.65;33.07;99114.47;6865968;28;20217;-75
2021/05/20 14:34:23;;;;;;;1.13;1.10;;;;;;;23.47;31.80;99105.78;6866501;28;20206;-74
2021/05/20 14:37:45;;;;;;;1.90;0.80;;;;;;;23.33;30.61;99107.50;6866469;28;20236;-75
2021/05/20 14:41:06;;;;;;;1.00;1.00;;;;;;;22.92;30.30;99114.16;6866549;28;20235;-76
2021/05/20 14:44:27;;;;;;;0.90;0.90;;;;;;;22.88;31.36;99115.81;6864892;28;20213;-75
2021/05/20 14:47:48;;;;;;;1.00;0.80;;;;;;;22.37;32.38;99112.22;6865066;28;20211;-75
2021/05/20 14:51:13;;;;;;;1.67;1.00;;;;;;;21.34;33.48;99103.38;6865268;28;20710;-75
2021/05/20 14:54:39;;;;;;;0.83;0.73;;;;;;;21.80;32.92;99105.25;6865434;28;20216;-75
2021/05/20 15:05:36;;;;;;;1.37;1.10;;;;;;;22.13;32.89;99088.31;6865391;28;20205;-75
2021/05/20 15:08:59;;;;;;;1.20;1.10;;;;;;;22.96;32.03;99099.56;6864531;28;20687;-75
2021/05/20 15:12:27;;;;;;;0.73;0.73;;;;;;;22.73;31.73;99094.66;6865443;28;20212;-75
2021/05/20 15:15:49;;;;;;;7.33;1.70;;;;;;;22.69;33.05;99096.31;6848002;28;20220;-75
2021/05/20 15:19:10;;;;;;;1.40;1.17;;;;;;;21.86;33.08;99072.06;6863868;28;20701;-75
2021/05/20 15:22:32;;;;;;;1.03;0.90;;;;;;;22.19;33.32;99077.03;6890088;28;20282;-75
2021/05/20 15:25:55;;;;;;;1.43;1.40;;;;;;;22.21;33.20;99060.28;6892771;28;20206;-75
2021/05/20 15:29:17;;;;;;;1.87;1.73;;;;;;;22.21;32.80;99041.06;6892458;28;20331;-74
2021/05/20 15:32:38;;;;;;;1.53;1.37;;;;;;;21.91;33.19;99058.34;6891387;28;20210;-75
2021/05/20 15:36:00;;;;;;;1.30;1.20;;;;;;;21.80;33.69;99075.88;6891800;28;20587;-76
2021/05/20 15:39:21;;;;;;;2.83;2.30;;;;;;;22.17;33.56;99070.16;6891523;28;20276;-76
2021/05/20 15:42:44;;;;;;;1.10;1.10;;;;;;;21.40;34.55;99066.63;6890951;28;20225;-75
2021/05/20 15:46:07;;;;;;;4.77;3.30;;;;;;;22.05;34.68;99058.59;6891033;28;20233;-74
2021/05/20 15:53:09;;;;;;;1.90;1.60;;;;;;;21.53;35.20;99064.22;6891171;28;20204;-76
2021/05/20 15:56:31;;;;;;;1.90;1.80;;;;;;;22.45;33.90;99059.50;6891873;28;20208;-75
2021/05/20 15:59:52;;;;;;;1.10;1.10;;;;;;;21.87;33.69;99048.16;6874448;28;20217;-75
2021/05/20 16:03:14;;;;;;;2.37;1.43;;;;;;;22.13;33.77;99049.84;6873168;28;20263;-75
2021/05/20 16:06:38;;;;;;;1.30;1.20;;;;;;;22.27;33.15;99042.69;6864812;28;20209;-75
2021/05/20 16:10:05;;;;;;;1.00;1.00;;;;;;;22.78;32.90;99034.16;6865453;28;20237;-75
2021/05/20 16:17:07;;;;;;;4.67;1.27;;;;;;;21.17;34.29;99030.63;6844279;28;20251;-75
2021/05/20 16:20:29;;;;;;;1.90;1.13;;;;;;;21.86;34.53;99024.53;6868726;28;20232;-75
2021/05/20 16:27:57;;;;;;;1.90;1.50;;;;;;;21.98;33.73;99022.34;6852117;28;20209;-75
2021/05/20 16:38:37;;;;;;;0.93;0.93;;;;;;;23.07;31.95;98987.63;6868727;28;20202;-76
2021/05/20 16:41:59;;;;;;;1.67;1.10;;;;;;;22.87;32.89;98974.75;6868428;28;20208;-75
2021/05/20 16:45:21;;;;;;;2.40;1.00;;;;;;;22.87;32.28;98983.00;6868728;28;20609;-76
2021/05/20 16:48:42;;;;;;;2.17;1.20;;;;;;;22.84;32.20;98988.25;6867981;28;20229;-76
2021/05/20 16:52:07;;;;;;;1.90;1.20;;;;;;;23.06;31.94;98974.97;6866745;28;20217;-75
2021/05/20 16:55:32;;;;;;;2.40;1.20;;;;;;;22.93;32.58;98983.81;6867483;28;20214;-75
2021/05/20 16:58:54;;;;;;;1.73;1.00;;;;;;;23.10;31.46;98976.03;6868116;28;20218;-75
2021/05/20 17:02:15;;;;;;;3.67;1.00;;;;;;;22.85;32.84;98987.97;6875938;28;20233;-74
2021/05/20 17:05:36;;;;;;;1.03;1.00;;;;;;;22.77;31.92;98996.78;6894639;28;20218;-75
2021/05/20 17:08:58;;;;;;;3.60;1.10;;;;;;;22.48;32.91;98993.00;6894963;28;20229;-76
2021/05/20 17:12:20;;;;;;;1.83;1.30;;;;;;;22.10;33.73;98988.06;6893311;28;20220;-75
2021/05/20 17:15:41;;;;;;;1.90;1.30;;;;;;;21.95;34.58;98995.47;6893565;28;20670;-76
2021/05/20 17:19:02;;;;;;;2.67;1.90;;;;;;;21.31;32.01;98992.25;6893811;28;20728;-76
2021/05/20 17:22:24;;;;;;;4.37;2.53;;;;;;;21.39;32.38;99005.47;6893613;28;20218;-76
2021/05/20 17:25:45;;;;;;;1.23;1.13;;;;;;;21.37;31.95;99009.56;6892382;28;20206;-76
2021/05/20 17:29:07;;;;;;;1.43;1.33;;;;;;;21.27;32.35;99005.97;6891634;28;20579;-75
2021/05/20 17:32:28;;;;;;;1.73;1.37;;;;;;;21.38;32.87;99006.56;6887583;28;20581;-75
2021/05/20 17:35:51;;;;;;;1.07;1.03;;;;;;;21.58;32.16;99003.88;6892529;28;20217;-76
2021/05/20 17:39:12;;;;;;;1.27;1.20;;;;;;;21.18;33.14;99006.47;6892737;28;20212;-75
2021/05/20 17:42:33;;;;;;;1.50;1.40;;;;;;;21.61;32.82;98994.28;6893103;28;20210;-75
2021/05/20 17:45:56;;;;;;;2.30;1.40;;;;;;;21.56;32.80;98984.13;6893885;28;20212;-76
2021/05/20 17:49:17;;;;;;;1.40;1.30;;;;;;;21.73;32.91;98994.88;6893436;28;20252;-76
2021/05/20 17:52:39;;;;;;;1.70;1.60;;;;;;;21.72;32.96;98993.25;6893096;28;20213;-74
2021/05/20 17:56:01;;;;;;;1.17;1.17;;;;;;;21.65;33.12;98993.47;6893192;28;20273;-75
2021/05/20 17:59:25;;;;;;;1.77;1.20;;;;;;;21.79;32.37;98993.78;6893385;28;20208;-76
2021/05/20 18:02:51;;;;;;;1.33;1.23;;;;;;;21.09;33.25;98968.88;6892257;28;20216;-75
2021/05/20 18:06:12;;;;;;;3.07;1.40;;;;;;;21.35;32.97;98990.63;6888380;28;20224;-75
2021/05/20 18:09:35;;;;;;;1.93;1.40;;;;;;;21.41;32.16;98978.59;6892914;28;20689;-75
2021/05/20 18:13:01;;;;;;;1.13;1.10;;;;;;;21.13;32.44;98979.03;6892724;28;20215;-75
2021/05/20 18:16:26;;;;;;;0.97;0.97;;;;;;;21.15;31.94;98978.78;6891418;28;21247;-75
2021/05/20 18:20:02;;;;;;;1.23;1.23;;;;;;;21.33;32.13;98985.72;6893176;28;20205;-75
2021/05/20 18:23:23;;;;;;;3.53;3.00;;;;;;;21.20;32.44;98974.13;6890401;28;20336;-76
2021/05/20 18:26:45;;;;;;;2.60;2.20;;;;;;;21.00;33.27;98977.91;6893858;28;20208;-76
2021/05/20 18:30:08;;;;;;;3.20;2.90;;;;;;;21.06;33.19;98974.09;6893843;28;20235;-75
2021/05/20 18:33:30;;;;;;;2.47;1.67;;;;;;;21.02;33.32;98982.81;6892045;28;20218;-75
2021/05/20 18:36:52;;;;;;;1.37;1.10;;;;;;;21.06;33.04;98972.19;6893077;28;20566;-75
2021/05/20 18:40:15;;;;;;;1.97;1.30;;;;;;;21.19;33.91;98975.22;6892653;28;20209;-75
2021/05/20 18:43:38;;;;;;;1.33;1.23;;;;;;;21.19;34.16;98961.50;6892387;28;20674;-76
2021/05/20 18:46:59;;;;;;;1.23;1.17;;;;;;;20.63;35.52;98964.25;6893115;28;20655;-74
2021/05/20 18:50:24;;;;;;;0.90;0.90;;;;;;;20.13;37.62;98971.31;6891715;28;20279;-76
2021/05/20 18:53:46;;;;;;;1.37;1.27;;;;;;;19.98;38.25;98957.47;6892765;28;20212;-75
2021/05/20 18:57:08;;;;;;;1.70;1.20;;;;;;;19.45;38.93;98952.88;6893065;28;20212;-74
2021/05/20 19:00:31;;;;;;;1.87;1.03;;;;;;;19.85;38.25;98958.72;6895348;28;20222;-75
2021/05/20 19:03:52;;;;;;;2.23;1.33;;;;;;;19.74;38.72;98942.50;6879681;28;20207;-76
2021/05/20 19:07:16;;;;;;;1.77;1.40;;;;;;;19.25;40.50;98939.00;6848804;28;20588;-75
2021/05/20 19:10:39;;;;;;;1.80;1.70;;;;;;;19.19;41.31;98942.72;6865666;28;20773;-76
2021/05/20 19:14:00;;;;;;;2.13;2.00;;;;;;;19.30;41.13;98911.72;6866498;28;20636;-75
2021/05/20 19:17:22;;;;;;;3.77;2.07;;;;;;;19.13;42.48;98927.34;6865583;28;20205;-74
2021/05/20 19:20:45;;;;;;;1.77;1.67;;;;;;;19.23;42.07;98923.94;6864932;28;20678;-75
2021/05/20 19:24:07;;;;;;;2.73;2.10;;;;;;;19.13;42.24;98915.59;6866214;28;20236;-75
2021/05/20 19:27:29;;;;;;;2.67;2.27;;;;;;;18.82;43.25;98919.06;6865073;28;20297;-76
2021/05/20 19:30:52;;;;;;;2.10;1.67;;;;;;;18.85;42.88;98902.16;6865732;28;20243;-76
2021/05/20 19:34:14;;;;;;;1.60;1.50;;;;;;;18.98;43.15;98915.44;6862983;28;20216;-76
2021/05/20 19:37:37;;;;;;;5.87;4.20;;;;;;;18.95;43.49;98921.41;6862418;28;20221;-76
2021/05/20 19:40:59;;;;;;;2.50;2.30;;;;;;;18.87;43.63;98922.66;6862454;28;20349;-76
2021/05/20 19:44:23;;;;;;;5.87;3.10;;;;;;;18.67;44.40;98932.53;6890199;28;20228;-76
2021/05/20 19:47:44;;;;;;;2.80;2.60;;;;;;;18.29;45.69;98935.25;6893269;28;20300;-76
2021/05/20 19:51:07;;;;;;;3.37;1.80;;;;;;;18.58;44.81;98934.06;6896045;28;20690;-75
2021/05/20 19:54:33;;;;;;;2.00;1.90;;;;;;;18.19;46.01;98935.09;6879355;28;20212;-76